createdAt,value
2019-02-09T10:27:55.291Z,3.7
2019-02-09T10:28:04.537Z,3.9
2019-02-09T10:28:12.856Z,4
2019-02-09T10:28:21.303Z,3.9
2019-02-09T10:28:29.577Z,4.2
2019-02-09T10:28:37.859Z,4.2
2019-02-09T10:28:46.052Z,4.5
2019-02-09T10:28:54.501Z,4.5
2019-02-09T10:29:03.711Z,4.6
2019-02-09T10:29:12.014Z,4.4
2019-02-09T10:29:20.499Z,4.1
2019-02-09T10:29:28.578Z,4
2019-02-09T10:29:36.927Z,4.1
2019-02-09T10:29:45.803Z,4
2019-02-09T10:29:54.125Z,4.2
2019-02-09T10:30:02.376Z,4.1
2019-02-09T10:30:11.332Z,4.2
2019-02-09T10:30:20.632Z,4.3
2019-02-09T10:30:29.749Z,4.5
2019-02-09T10:30:39.038Z,4.5
2019-02-09T10:30:48.364Z,4.5
2019-02-09T10:30:57.158Z,4.2
2019-02-09T10:31:06.203Z,4.1
2019-02-09T10:31:16.096Z,3.9
2019-02-09T10:31:25.154Z,4.1
2019-02-09T10:31:34.380Z,4.4
2019-02-09T10:31:43.361Z,4.3
2019-02-09T10:31:52.577Z,4.3
2019-02-09T10:32:01.671Z,4.3
2019-02-09T10:32:10.958Z,4.4
2019-02-09T10:32:19.974Z,4.3
2019-02-09T10:32:29.112Z,4.3
2019-02-09T10:32:44.049Z,4.3
2019-02-09T10:32:48.694Z,4.3
2019-02-09T10:32:57.249Z,4.2
2019-02-09T10:33:05.617Z,4.3
2019-02-09T10:33:14.375Z,4.6
2019-02-09T10:33:24.254Z,4.6
2019-02-09T10:33:33.369Z,4.4
2019-02-09T10:33:42.995Z,4.2
2019-02-09T10:33:52.469Z,4.1
2019-02-09T10:34:02.722Z,4.1
2019-02-09T10:34:11.631Z,4.3
2019-02-09T10:34:21.045Z,4.4
2019-02-09T10:34:30.575Z,4.5
2019-02-09T19:25:30.132Z,1.7
2019-02-09T19:25:38.928Z,1.6
2019-02-09T19:25:47.692Z,1.6
2019-02-09T19:25:57.598Z,1.6
2019-02-09T19:26:06.554Z,1.7
2019-02-09T19:26:15.520Z,1.7
2019-02-09T19:26:24.536Z,1.7
2019-02-09T19:26:33.301Z,1.8
2019-02-09T19:26:42.088Z,1.7
2019-02-09T19:26:50.880Z,1.7
2019-02-09T19:26:59.665Z,1.7
2019-02-09T19:27:08.528Z,1.6
2019-02-09T19:27:18.096Z,1.7
2019-02-09T19:27:27.985Z,1.6
2019-02-09T19:27:37.828Z,1.7
2019-02-09T19:27:47.669Z,1.7
2019-02-09T19:27:57.432Z,1.8
2019-02-09T19:28:06.903Z,1.6
2019-02-09T19:28:16.428Z,1.6
2019-02-09T19:28:25.518Z,1.6
2019-02-09T19:28:34.808Z,1.6
2019-02-09T19:28:43.684Z,1.6
2019-02-09T19:28:52.557Z,1.6
2019-02-09T19:29:01.603Z,1.6
2019-02-09T19:29:10.760Z,1.7
2019-02-09T19:29:20.284Z,1.8
2019-02-09T19:29:29.340Z,1.8
2019-02-09T19:29:38.160Z,1.8
2019-02-09T19:29:46.999Z,1.6
2019-02-09T19:29:56.053Z,1.6
2019-02-09T19:30:04.916Z,1.5
2019-02-09T19:30:13.766Z,1.6
2019-02-09T19:30:23.087Z,1.7
2019-02-09T19:30:32.959Z,1.7
2019-02-09T19:30:42.226Z,2
2019-02-09T19:30:51.679Z,2.2
2019-02-09T19:31:00.822Z,2.1
2019-02-09T19:31:10.377Z,2.1
2019-02-09T19:31:20.763Z,2.2
2019-02-09T19:31:58.550Z,1.8
2019-02-09T19:32:06.443Z,1.7
2019-02-09T19:32:14.387Z,1.8
2019-02-09T19:32:23.274Z,2
2019-02-09T19:32:31.226Z,2.2
2019-02-09T19:32:39.122Z,2.4
2019-02-09T19:32:47.071Z,2.3
2019-02-09T19:32:54.968Z,2.1
2019-02-09T19:33:02.940Z,2
2019-02-09T19:33:10.879Z,2
2019-02-09T19:33:18.766Z,2.1
2019-02-09T19:33:26.764Z,2.2
2019-02-09T19:33:34.669Z,2.3
2019-02-09T19:33:42.642Z,2.2
2019-02-09T19:33:50.586Z,2.3
2019-02-09T19:33:58.547Z,2.2
2019-02-09T19:34:06.450Z,2.3
2019-02-09T19:34:14.406Z,2.1
2019-02-09T19:34:22.344Z,2.2
2019-02-09T19:34:30.250Z,2.1
2019-02-09T19:34:39.204Z,2.2
2019-02-09T19:34:47.121Z,2.1
2019-02-09T19:35:43.663Z,2.5
2019-02-09T19:35:51.593Z,2.5
2019-02-09T19:35:59.510Z,2.4
2019-02-09T19:36:08.418Z,1.6
2019-02-09T19:36:16.327Z,1.4
2019-02-09T19:36:24.221Z,0.8
2019-02-09T19:36:32.128Z,0.5
2019-02-09T19:36:41.012Z,0.5
2019-02-09T19:36:48.907Z,0.4
2019-02-09T19:36:56.793Z,0.4
2019-02-09T19:37:04.711Z,0.2
2019-02-09T19:37:12.637Z,0.2
2019-02-09T19:37:20.592Z,0.1
2019-02-09T19:37:28.470Z,0.2
2019-02-09T19:37:37.420Z,0.1
2019-02-09T19:37:45.439Z,0.1
2019-02-09T19:37:54.322Z,0.3
2019-02-09T19:38:02.256Z,0.4
2019-02-09T19:38:10.147Z,0.4
2019-02-09T19:38:19.068Z,0.3
2019-02-09T19:38:26.960Z,0.7
2019-02-09T19:38:34.836Z,1.2
2019-02-09T19:38:42.714Z,1.9
2019-02-09T19:38:51.666Z,2.4
2019-02-09T19:38:59.560Z,2.7
2019-02-09T19:39:07.469Z,2.4
2019-02-09T19:39:15.374Z,2.3
2019-02-09T19:39:23.269Z,2.1
2019-02-09T19:39:31.152Z,1.8
2019-02-09T19:39:40.066Z,1.8
2019-02-09T19:39:47.980Z,2
2019-02-09T19:39:55.993Z,2.1
2019-02-09T19:40:03.950Z,2.2
2019-02-09T19:40:11.899Z,2.3
2019-02-09T19:40:19.792Z,2.3
2019-02-09T19:40:27.715Z,2.5
2019-02-09T19:40:35.641Z,2.6
2019-02-09T19:40:43.542Z,2.6
2019-02-09T19:40:51.468Z,2.5
2019-02-09T19:40:59.427Z,2.5
2019-02-09T19:41:08.311Z,2.5
2019-02-09T19:41:16.183Z,2.5
2019-02-09T19:41:24.094Z,2.5
2019-02-09T19:41:31.979Z,2.4
2019-02-09T19:41:39.893Z,2.3
2019-02-09T19:41:47.799Z,2.1
2019-02-09T19:41:55.699Z,2.3
2019-02-09T19:42:03.623Z,2.2
2019-02-09T19:42:11.498Z,2.2
2019-02-09T19:42:20.370Z,2.1
2019-02-09T19:42:28.287Z,2.1
2019-02-09T19:42:36.176Z,2.5
2019-02-09T19:42:44.175Z,2.6
2019-02-09T19:42:52.043Z,2.9
2019-02-09T19:43:00.938Z,2.8
2019-02-09T19:43:08.858Z,2.6
2019-02-09T19:43:16.760Z,2.3
2019-02-09T19:43:24.692Z,2.3
2019-02-09T19:43:32.609Z,2.3
2019-02-09T19:43:40.512Z,2.2
2019-02-09T19:43:48.535Z,2.2
2019-02-09T19:43:56.439Z,2.2
2019-02-09T19:44:04.380Z,2.3
2019-02-09T19:44:12.281Z,2.5
2019-02-09T19:44:20.153Z,2.3
2019-02-09T19:44:28.035Z,2.6
2019-02-09T19:44:35.929Z,2.7
2019-02-09T19:44:43.815Z,2.9
2019-02-09T19:44:51.717Z,3
2019-02-09T19:44:59.682Z,2.6
2019-02-09T19:45:07.549Z,2.6
2019-02-09T19:45:15.469Z,2.7
2019-02-09T19:45:23.337Z,2.8
2019-02-09T19:45:31.211Z,2.9
2019-02-09T19:45:39.084Z,2.8
2019-02-09T19:45:47.024Z,2.7
2019-02-09T19:45:54.916Z,2.7
2019-02-09T19:46:02.802Z,2.6
2019-02-09T19:46:11.668Z,2.7
2019-02-09T19:46:19.558Z,2.6
2019-02-09T19:46:27.450Z,2.6
2019-02-09T19:46:35.377Z,2.7
2019-02-09T19:46:43.276Z,3
2019-02-09T19:46:51.158Z,3
2019-02-09T19:46:59.038Z,2.8
2019-02-09T19:47:06.927Z,2.9
2019-02-09T19:47:14.821Z,2.8
2019-02-09T19:47:22.780Z,2.9
2019-02-09T19:47:30.697Z,2.8
2019-02-09T19:47:38.596Z,2.6
2019-02-09T19:47:46.489Z,2.7
2019-02-09T19:47:54.537Z,2.6
2019-02-09T19:48:02.463Z,2.6
2019-02-09T19:48:11.423Z,2.8
2019-02-09T19:48:19.255Z,2.7
2019-02-09T19:48:27.150Z,2.8
2019-02-09T19:48:35.089Z,2.7
2019-02-09T19:48:43.047Z,2.6
2019-02-09T19:48:51.016Z,2.5
2019-02-09T19:48:58.888Z,2.6
2019-02-09T19:49:06.802Z,2.4
2019-02-09T19:49:14.795Z,2.6
2019-02-09T19:49:23.979Z,2.6
2019-02-09T19:49:31.860Z,2.7
2019-02-09T19:49:39.749Z,2.7
2019-02-09T19:49:47.669Z,2.7
2019-02-09T19:49:55.568Z,2.6
2019-02-09T19:50:03.609Z,2.7
2019-02-09T19:50:12.436Z,2.6
2019-02-09T19:50:20.670Z,2.5
2019-02-09T19:50:28.555Z,2.8
2019-02-09T19:50:36.443Z,2.9
2019-02-09T19:50:44.374Z,2.9
2019-02-09T19:50:52.293Z,2.6
2019-02-09T19:51:01.171Z,2.7
2019-02-09T19:51:09.127Z,2.3
2019-02-09T19:51:18.015Z,2.4
2019-02-09T19:51:25.903Z,2.5
2019-02-09T19:51:33.785Z,2.6
2019-02-09T19:51:42.666Z,2.6
2019-02-09T19:51:51.563Z,2.6
2019-02-09T19:51:59.461Z,2.7
2019-02-09T19:52:08.352Z,2.7
2019-02-09T19:52:17.251Z,2.6
2019-02-09T19:52:25.150Z,2.6
2019-02-09T19:52:33.075Z,2.5
2019-02-09T19:52:42.033Z,2.6
2019-02-09T19:52:49.950Z,2.6
2019-02-09T19:52:58.868Z,2.6
2019-02-09T19:53:06.762Z,2.5
2019-02-09T19:53:14.643Z,2.5
2019-02-09T19:53:23.529Z,2.6
2019-02-09T19:53:32.423Z,2.4
2019-02-09T19:53:41.231Z,2.5
2019-02-09T19:53:49.280Z,2.4
2019-02-09T19:53:57.193Z,2.6
2019-02-09T19:54:05.087Z,2.6
2019-02-09T19:54:12.969Z,2.7
2019-02-09T19:54:21.529Z,2.5
2019-02-09T19:54:29.424Z,2.6
2019-02-09T19:54:37.368Z,2.5
2019-02-09T19:54:45.248Z,2.5
2019-02-09T19:54:53.116Z,2.5
2019-02-09T19:55:01.038Z,2.5
2019-02-09T19:55:08.920Z,2.3
2019-02-09T19:55:16.818Z,2.2
2019-02-09T19:55:25.696Z,2.3
2019-02-09T19:55:33.701Z,2.4
2019-02-09T19:55:41.740Z,2.6
2019-02-09T19:55:49.664Z,2.9
2019-02-09T19:55:57.558Z,2.9
2019-02-09T19:56:05.580Z,2.8
2019-02-09T19:56:14.452Z,2.9
2019-02-09T19:56:22.338Z,2.8
2019-02-09T19:56:30.231Z,2.7
2019-02-09T19:56:38.129Z,3.2
2019-02-09T19:56:47.030Z,3.1
2019-02-09T19:56:55.166Z,3
2019-02-09T19:57:03.043Z,2.7
2019-02-09T19:57:10.949Z,2.4
2019-02-09T19:57:18.840Z,2.2
2019-02-09T19:57:26.730Z,2.5
2019-02-09T19:57:34.711Z,2.4
2019-02-09T19:57:42.699Z,2.6
2019-02-09T19:57:51.776Z,2.8
2019-02-09T19:57:59.708Z,2.6
2019-02-09T19:58:07.603Z,2.4
2019-02-09T19:58:15.485Z,2.3
2019-02-09T19:58:23.358Z,2.3
2019-02-09T19:58:31.245Z,2.3
2019-02-09T19:58:39.157Z,2.2
2019-02-09T19:58:47.134Z,2.4
2019-02-09T19:58:55.025Z,2.5
2019-02-09T19:59:02.916Z,2.7
2019-02-09T19:59:10.841Z,2.7
2019-02-09T19:59:18.770Z,2.6
2019-02-09T19:59:26.723Z,2.3
2019-02-09T19:59:34.626Z,2.3
2019-02-09T19:59:43.503Z,2.2
2019-02-09T19:59:51.386Z,2.3
2019-02-09T19:59:59.332Z,2.3
2019-02-09T20:00:07.238Z,2.4
2019-02-09T20:00:15.170Z,2.3
2019-02-09T20:00:23.094Z,2.4
2019-02-09T20:00:30.950Z,2.5
2019-02-09T20:00:38.851Z,2.6
2019-02-09T20:00:46.776Z,2.8
2019-02-09T20:00:54.732Z,3.1
2019-02-09T20:01:02.733Z,3.5
2019-02-09T20:01:10.687Z,3.4
2019-02-09T20:01:18.630Z,3.4
2019-02-09T20:01:27.600Z,3.2
2019-02-09T20:01:35.993Z,2.9
2019-02-09T20:01:43.963Z,2.9
2019-02-09T20:01:51.920Z,2.9
2019-02-09T20:01:59.854Z,2.8
2019-02-09T20:02:08.773Z,3
2019-02-09T20:02:16.691Z,3
2019-02-09T20:02:24.829Z,3.1
2019-02-09T20:02:33.529Z,3.1
2019-02-09T20:02:41.444Z,2.9
2019-02-09T20:02:49.359Z,3
2019-02-09T20:02:57.278Z,3.1
2019-02-09T20:03:05.172Z,3.2
2019-02-09T20:03:13.071Z,3.2
2019-02-09T20:03:21.048Z,3.2
2019-02-09T20:03:28.995Z,3
2019-02-09T20:03:36.979Z,2.9
2019-02-09T20:03:45.900Z,2.7
2019-02-09T20:03:53.802Z,2.6
2019-02-09T20:04:02.686Z,2.8
2019-02-09T20:04:10.624Z,2.7
2019-02-09T20:04:18.522Z,2.6
2019-02-09T20:04:26.432Z,2.8
2019-02-09T20:04:34.349Z,2.7
2019-02-09T20:04:42.283Z,2.7
2019-02-09T20:04:50.207Z,2.9
2019-02-09T20:04:58.090Z,3
2019-02-09T20:05:06.065Z,3
2019-02-09T20:05:19.663Z,3
2019-02-09T20:05:24.841Z,3
2019-02-09T20:05:32.729Z,2.8
2019-02-09T20:05:40.652Z,2.7
2019-02-09T20:05:48.617Z,2.6
2019-02-09T20:05:56.533Z,2.9
2019-02-09T20:06:04.462Z,2.9
2019-02-09T20:06:12.371Z,2.9
2019-02-09T20:06:20.265Z,3
2019-02-09T20:06:28.168Z,3.1
2019-02-09T20:06:36.095Z,3.1
2019-02-09T20:06:44.091Z,3.2
2019-02-09T20:06:52.032Z,2.9
2019-02-09T20:06:59.934Z,2.6
2019-02-09T20:07:07.832Z,2.5
2019-02-09T20:07:15.742Z,2.5
2019-02-09T20:07:23.671Z,2.6
2019-02-09T20:07:33.553Z,2.9
2019-02-09T20:07:41.443Z,2.8
2019-02-09T20:07:49.324Z,2.9
2019-02-09T20:07:58.220Z,2.8
2019-02-09T20:08:06.090Z,2.8
2019-02-09T20:08:13.997Z,3
2019-02-09T20:08:21.968Z,2.7
2019-02-09T20:08:29.867Z,2.8
2019-02-09T20:08:37.745Z,2.9
2019-02-09T20:08:45.648Z,2.9
2019-02-09T20:08:53.565Z,3.1
2019-02-09T20:09:01.457Z,3.2
2019-02-09T20:09:09.340Z,3.1
2019-02-09T20:09:17.243Z,3
2019-02-09T20:09:25.182Z,2.7
2019-02-09T20:09:33.598Z,2.6
2019-02-09T20:09:42.569Z,2.6
2019-02-09T20:09:50.542Z,2.5
2019-02-09T20:09:59.549Z,2.7
2019-02-09T20:10:08.109Z,3
2019-02-09T20:10:16.162Z,2.8
2019-02-09T20:10:24.058Z,2.8
2019-02-09T20:10:31.984Z,2.7
2019-02-09T20:10:39.948Z,2.7
2019-02-09T20:10:48.862Z,2.8
2019-02-09T20:10:56.876Z,2.9
2019-02-09T20:11:04.868Z,2.8
2019-02-09T20:11:13.807Z,2.8
2019-02-09T20:11:21.740Z,2.8
2019-02-09T20:11:29.807Z,2.7
2019-02-09T20:11:37.695Z,2.7
2019-02-09T20:11:45.676Z,2.6
2019-02-09T20:11:53.725Z,2.5
2019-02-09T20:12:01.637Z,2.5
2019-02-09T20:12:09.601Z,2.6
2019-02-09T20:12:18.793Z,2.7
2019-02-09T20:12:26.586Z,2.9
2019-02-09T20:12:34.469Z,2.9
2019-02-09T20:12:42.450Z,2.8
2019-02-09T20:12:50.504Z,2.9
2019-02-09T20:12:58.399Z,3
2019-02-09T20:13:07.375Z,2.9
2019-02-09T20:13:15.335Z,3.4
2019-02-09T20:13:24.332Z,3.2
2019-02-09T20:13:32.361Z,3.1
2019-02-09T20:13:40.340Z,3.3
2019-02-09T20:13:49.350Z,2.9
2019-02-09T20:13:57.306Z,2.8
2019-02-09T20:14:05.228Z,3.1
2019-02-09T20:14:13.238Z,2.9
2019-02-09T20:14:21.229Z,3
2019-02-09T20:14:30.171Z,3.3
2019-02-09T20:14:38.170Z,3
2019-02-09T20:14:46.112Z,2.9
2019-02-09T20:14:54.066Z,2.9
2019-02-09T20:15:02.046Z,2.8
2019-02-09T20:15:09.977Z,2.7
2019-02-09T20:15:17.890Z,2.8
2019-02-09T20:15:25.827Z,3
2019-02-09T20:15:33.763Z,3
2019-02-09T20:15:42.714Z,2.9
2019-02-09T20:15:51.777Z,2.8
2019-02-09T20:15:59.875Z,2.9
2019-02-09T20:16:07.783Z,2.9
2019-02-09T20:16:16.862Z,2.9
2019-02-09T20:16:25.799Z,2.9
2019-02-09T20:16:33.754Z,3.2
2019-02-09T20:16:41.681Z,3.3
2019-02-09T20:16:49.628Z,3.2
2019-02-09T20:16:57.531Z,3.1
2019-02-09T20:17:05.510Z,2.8
2019-02-09T20:17:13.469Z,2.8
2019-02-09T20:17:21.435Z,2.7
2019-02-09T20:17:30.363Z,2.8
2019-02-09T20:17:38.344Z,2.8
2019-02-09T20:17:46.313Z,2.7
2019-02-09T20:17:54.296Z,2.7
2019-02-09T20:18:02.302Z,2.7
2019-02-09T20:18:10.240Z,2.7
2019-02-09T20:18:18.260Z,2.6
2019-02-09T20:18:26.155Z,2.8
2019-02-09T20:18:34.274Z,2.8
2019-02-09T20:18:42.188Z,2.6
2019-02-09T20:18:51.714Z,2.6
2019-02-09T20:18:59.113Z,2.6
2019-02-09T20:19:07.154Z,2.6
2019-02-09T20:19:15.179Z,2.7
2019-02-09T20:19:23.181Z,2.9
2019-02-09T20:19:31.104Z,3
2019-02-09T20:19:39.017Z,3
2019-02-09T20:19:46.961Z,2.9
2019-02-09T20:19:54.906Z,2.9
2019-02-09T20:20:02.897Z,2.8
2019-02-09T20:20:10.833Z,2.8
2019-02-09T20:20:18.749Z,2.7
2019-02-09T20:20:26.653Z,2.5
2019-02-09T20:20:34.561Z,2.4
2019-02-09T20:20:47.488Z,2.5
2019-02-09T20:20:54.482Z,2.6
2019-02-09T20:21:02.431Z,2.5
2019-02-09T20:21:10.354Z,2.7
2019-02-09T20:21:18.359Z,2.8
2019-02-09T20:21:26.338Z,2.9
2019-02-09T20:21:34.263Z,3
2019-02-09T20:21:42.174Z,3
2019-02-09T20:21:50.127Z,3
2019-02-09T20:21:58.066Z,2.9
2019-02-09T20:22:06.021Z,2.7
2019-02-09T20:22:13.971Z,2.7
2019-02-09T20:22:21.862Z,2.9
2019-02-09T20:22:29.806Z,2.8
2019-02-09T20:22:38.767Z,3
2019-02-09T20:22:46.734Z,2.9
2019-02-09T20:22:54.687Z,2.8
2019-02-09T20:23:02.584Z,2.7
2019-02-09T20:23:10.536Z,2.7
2019-02-09T20:23:18.457Z,2.9
2019-02-09T20:23:26.412Z,3.2
2019-02-09T20:23:34.320Z,3.3
2019-02-09T20:23:42.262Z,3.2
2019-02-09T20:23:51.239Z,3
2019-02-09T20:23:59.231Z,2.9
2019-02-09T20:24:07.135Z,2.9
2019-02-09T20:24:15.078Z,2.7
2019-02-09T20:24:23.043Z,2.9
2019-02-09T20:24:31.929Z,3
2019-02-09T20:24:39.834Z,3
2019-02-09T20:24:47.814Z,2.9
2019-02-09T20:24:56.729Z,3.2
2019-02-09T20:25:04.639Z,3.3
2019-02-09T20:25:12.559Z,3.1
2019-02-09T20:25:20.453Z,3.2
2019-02-09T20:25:28.346Z,2.7
2019-02-09T20:25:36.218Z,2.7
2019-02-09T20:25:44.253Z,2.8
2019-02-09T20:25:52.191Z,2.8
2019-02-09T20:26:00.070Z,2.7
2019-02-09T20:26:07.971Z,2.9
2019-02-09T20:26:15.866Z,2.9
2019-02-09T20:26:23.807Z,2.9
2019-02-09T20:26:31.736Z,2.6
2019-02-09T20:26:40.623Z,2.4
2019-02-09T20:26:48.556Z,2.6
2019-02-09T20:26:56.455Z,2.7
2019-02-09T20:27:05.374Z,2.9
2019-02-09T20:27:13.335Z,3
2019-02-09T20:27:22.247Z,3.1
2019-02-09T20:27:30.174Z,2.9
2019-02-09T20:27:38.081Z,2.9
2019-02-09T20:27:46.013Z,2.7
2019-02-09T20:27:53.919Z,2.7
2019-02-09T20:28:02.941Z,2.7
2019-02-09T20:28:10.833Z,2.8
2019-02-09T20:28:18.729Z,3
2019-02-09T20:28:26.670Z,3.1
2019-02-09T20:28:34.572Z,3.2
2019-02-09T20:28:42.485Z,3
2019-02-09T20:28:50.416Z,2.8
2019-02-09T20:28:58.533Z,2.7
2019-02-09T20:29:07.416Z,2.5
2019-02-09T20:29:15.336Z,2.7
2019-02-09T20:29:23.245Z,2.6
2019-02-09T20:29:31.165Z,2.7
2019-02-09T20:29:39.152Z,2.8
2019-02-09T20:29:47.130Z,2.8
2019-02-09T20:29:55.107Z,2.8
2019-02-09T20:30:03.025Z,2.7
2019-02-09T20:30:13.023Z,2.5
2019-02-09T20:30:21.247Z,2.5
2019-02-09T20:30:29.346Z,2.5
2019-02-09T20:30:37.452Z,2.6
2019-02-09T20:30:45.762Z,2.8
2019-02-09T20:30:54.117Z,2.7
2019-02-09T20:31:02.329Z,2.7
2019-02-09T20:31:10.536Z,2.9
2019-02-09T20:31:18.770Z,2.6
2019-02-09T20:31:28.046Z,2.7
2019-02-09T20:31:37.307Z,2.5
2019-02-09T20:31:46.664Z,2.6
2019-02-09T20:31:54.786Z,2.5
2019-02-09T20:32:03.034Z,2.6
2019-02-09T20:32:11.156Z,2.7
2019-02-09T20:32:20.136Z,2.9
2019-02-09T20:32:28.294Z,2.8
2019-02-09T20:32:36.266Z,2.9
2019-02-09T20:32:44.277Z,2.9
2019-02-09T20:32:53.303Z,3
2019-02-09T20:33:01.237Z,3
2019-02-09T20:33:09.185Z,3.1
2019-02-09T20:33:17.294Z,2.8
2019-02-09T20:33:25.196Z,2.7
2019-02-09T20:33:33.105Z,2.8
2019-02-09T20:33:41.037Z,2.6
2019-02-09T20:33:50.936Z,2.5
2019-02-09T20:33:58.835Z,2.5
2019-02-09T20:34:06.739Z,2.6
2019-02-09T20:34:14.630Z,2.7
2019-02-09T20:34:22.544Z,2.8
2019-02-09T20:34:30.478Z,2.8
2019-02-09T20:34:38.362Z,2.8
2019-02-09T20:34:46.321Z,2.9
2019-02-09T20:34:54.259Z,3
2019-02-09T20:35:02.200Z,2.9
2019-02-09T20:35:10.165Z,2.7
2019-02-09T20:35:19.076Z,2.5
2019-02-09T20:35:31.907Z,2.5
2019-02-09T20:35:39.815Z,2.6
2019-02-09T20:35:47.735Z,2.7
2019-02-09T20:35:55.624Z,2.9
2019-02-09T20:36:03.647Z,2.8
2019-02-09T20:36:11.531Z,2.8
2019-02-09T20:36:19.440Z,2.7
2019-02-09T20:36:27.312Z,2.7
2019-02-09T20:36:35.222Z,2.8
2019-02-09T20:36:44.122Z,2.9
2019-02-09T20:36:52.015Z,3
2019-02-09T20:36:59.924Z,2.9
2019-02-09T20:37:07.815Z,2.9
2019-02-09T20:37:15.696Z,2.8
2019-02-09T20:37:23.613Z,2.7
2019-02-09T20:37:31.545Z,2.6
2019-02-09T20:37:39.432Z,2.5
2019-02-09T20:37:47.376Z,2.7
2019-02-09T20:37:56.260Z,2.6
2019-02-09T20:38:04.167Z,2.7
2019-02-09T20:38:12.092Z,2.6
2019-02-09T20:38:19.981Z,2.4
2019-02-09T20:38:28.853Z,2.4
2019-02-09T20:38:36.740Z,2.3
2019-02-09T20:38:44.644Z,2.4
2019-02-09T20:38:52.530Z,2.5
2019-02-09T20:39:04.569Z,2.6
2019-02-09T20:39:12.314Z,2.7
2019-02-09T20:39:20.208Z,2.5
2019-02-09T20:39:28.096Z,2.4
2019-02-09T20:39:35.993Z,2.6
2019-02-09T20:39:44.937Z,2.7
2019-02-09T20:39:52.835Z,2.9
2019-02-09T20:40:00.727Z,2.9
2019-02-09T20:40:08.648Z,2.8
2019-02-09T20:40:16.558Z,2.8
2019-02-09T20:40:24.434Z,2.8
2019-02-09T20:40:32.319Z,2.7
2019-02-09T20:40:40.234Z,2.7
2019-02-09T20:40:49.101Z,2.7
2019-02-09T20:40:57.038Z,2.8
2019-02-09T20:41:04.956Z,2.8
2019-02-09T20:41:12.870Z,2.8
2019-02-09T20:41:20.727Z,2.8
2019-02-09T20:41:28.668Z,2.8
2019-02-09T20:41:36.606Z,3
2019-02-09T20:41:44.568Z,3
2019-02-09T20:41:52.521Z,2.9
2019-02-09T20:42:00.443Z,2.7
2019-02-09T20:42:08.328Z,2.4
2019-02-09T20:42:17.243Z,2.4
2019-02-09T20:42:25.159Z,2.5
2019-02-09T20:42:33.038Z,2.6
2019-02-09T20:42:40.935Z,2.7
2019-02-09T20:42:48.924Z,2.7
2019-02-09T20:43:01.912Z,2.8
2019-02-09T20:43:09.681Z,2.8
2019-02-09T20:43:17.653Z,2.9
2019-02-09T20:43:25.588Z,3.1
2019-02-09T20:43:33.492Z,3
2019-02-09T20:43:41.394Z,2.7
2019-02-09T20:43:49.285Z,2.6
2019-02-09T20:43:57.225Z,2.6
2019-02-09T20:44:05.113Z,2.7
2019-02-09T20:44:13.004Z,2.9
2019-02-09T20:44:21.923Z,3
2019-02-09T20:44:29.833Z,2.9
2019-02-09T20:44:37.777Z,2.9
2019-02-09T20:44:45.762Z,2.8
2019-02-09T20:44:53.773Z,2.8
2019-02-09T20:45:02.733Z,2.9
2019-02-09T20:45:10.705Z,2.7
2019-02-09T20:45:18.675Z,2.5
2019-02-09T20:45:26.619Z,2.3
2019-02-09T20:45:35.562Z,2.4
2019-02-09T20:45:43.595Z,2.5
2019-02-09T20:45:51.510Z,2.6
2019-02-09T20:45:59.447Z,2.7
2019-02-09T20:46:07.404Z,2.7
2019-02-09T20:46:15.333Z,2.7
2019-02-09T20:46:23.260Z,2.6
2019-02-09T20:46:31.236Z,2.6
2019-02-09T20:46:39.175Z,2.7
2019-02-09T20:46:47.086Z,2.8
2019-02-09T20:46:55.023Z,2.8
2019-02-09T20:47:02.982Z,2.8
2019-02-09T20:47:11.954Z,2.9
2019-02-09T20:47:19.915Z,2.9
2019-02-09T20:47:27.848Z,3.1
2019-02-09T20:47:35.872Z,3
2019-02-09T20:47:49.689Z,3
2019-02-09T20:47:56.746Z,2.9
2019-02-09T20:48:04.685Z,2.8
2019-02-09T20:48:13.580Z,2.7
2019-02-09T20:48:21.506Z,2.7
2019-02-09T20:48:29.459Z,2.6
2019-02-09T20:48:38.401Z,2.4
2019-02-09T20:48:46.315Z,2.7
2019-02-09T20:48:54.292Z,2.8
2019-02-09T20:49:02.237Z,2.9
2019-02-09T20:49:10.137Z,2.9
2019-02-09T20:49:18.165Z,2.9
2019-02-09T20:49:26.091Z,2.9
2019-02-09T20:49:34.002Z,2.8
2019-02-09T20:49:41.927Z,2.6
2019-02-09T20:49:49.957Z,2.6
2019-02-09T20:49:57.899Z,2.7
2019-02-09T20:50:05.820Z,2.8
2019-02-09T20:50:13.820Z,3
2019-02-09T20:50:21.738Z,2.9
2019-02-09T20:50:29.662Z,2.8
2019-02-09T20:50:37.569Z,2.8
2019-02-09T20:50:45.466Z,2.6
2019-02-09T20:50:53.458Z,2.5
2019-02-09T20:51:01.349Z,2.5
2019-02-09T20:51:09.379Z,2.5
2019-02-09T20:51:17.380Z,2.8
2019-02-09T20:51:25.447Z,2.7
2019-02-09T20:51:33.371Z,2.7
2019-02-09T20:51:41.361Z,2.6
2019-02-09T20:51:49.330Z,2.8
2019-02-09T20:51:57.259Z,2.7
2019-02-09T20:52:07.145Z,2.7
2019-02-09T20:52:14.238Z,2.7
2019-02-09T20:52:22.183Z,2.7
2019-02-09T20:52:30.153Z,2.9
2019-02-09T20:52:39.115Z,2.9
2019-02-09T20:52:47.060Z,2.7
2019-02-09T20:52:55.051Z,2.9
2019-02-09T20:53:02.969Z,2.8
2019-02-09T20:53:10.963Z,2.9
2019-02-09T20:53:18.946Z,2.8
2019-02-09T20:53:26.928Z,2.7
2019-02-09T20:53:34.826Z,2.7
2019-02-09T20:53:42.779Z,3
2019-02-09T20:53:50.788Z,2.9
2019-02-09T20:53:58.830Z,2.9
2019-02-09T20:54:06.822Z,2.9
2019-02-09T20:54:14.705Z,2.7
2019-02-09T20:54:22.630Z,2.6
2019-02-09T20:54:30.572Z,2.8
2019-02-09T20:54:38.497Z,2.9
2019-02-09T20:54:46.447Z,3
2019-02-09T20:54:56.502Z,2.9
2019-02-09T20:55:04.397Z,2.6
2019-02-09T20:55:12.306Z,2.6
2019-02-09T20:55:20.383Z,2.6
2019-02-09T20:55:28.301Z,2.6
2019-02-09T20:55:36.250Z,2.9
2019-02-09T20:55:44.242Z,3
2019-02-09T20:55:52.150Z,2.9
2019-02-09T20:56:00.165Z,2.9
2019-02-09T20:56:08.190Z,2.6
2019-02-09T20:56:16.141Z,2.6
2019-02-09T20:56:24.142Z,2.7
2019-02-09T20:56:32.183Z,2.7
2019-02-09T20:56:40.148Z,2.8
2019-02-09T20:56:48.133Z,2.6
2019-02-09T20:56:56.074Z,2.5
2019-02-09T20:57:04.022Z,2.5
2019-02-09T20:57:11.941Z,2.5
2019-02-09T20:57:19.877Z,2.5
2019-02-09T20:57:27.870Z,2.5
2019-02-09T20:57:35.828Z,2.7
2019-02-09T20:57:44.781Z,2.7
2019-02-09T20:57:52.838Z,2.8
2019-02-09T20:58:00.877Z,2.7
2019-02-09T20:58:08.835Z,2.8
2019-02-09T20:58:16.906Z,2.7
2019-02-09T20:58:25.715Z,2.5
2019-02-09T20:58:33.601Z,2.6
2019-02-09T20:58:41.495Z,2.5
2019-02-09T20:58:49.478Z,2.6
2019-02-09T20:58:57.544Z,2.6
2019-02-09T20:59:06.456Z,2.6
2019-02-09T20:59:14.450Z,2.6
2019-02-09T20:59:22.406Z,2.5
2019-02-09T20:59:30.342Z,2.6
2019-02-09T20:59:38.293Z,2.5
2019-02-09T20:59:46.402Z,2.4
2019-02-09T20:59:54.398Z,2.7
2019-02-09T21:00:02.309Z,2.7
2019-02-09T21:00:17.917Z,2.8
2019-02-09T21:00:22.138Z,2.8
2019-02-09T21:00:30.093Z,2.8
2019-02-09T21:00:38.038Z,2.8
2019-02-09T21:00:45.937Z,2.8
2019-02-09T21:00:53.906Z,2.8
2019-02-09T21:01:01.860Z,2.8
2019-02-09T21:01:10.817Z,2.9
2019-02-09T21:01:18.725Z,2.7
2019-02-09T21:01:26.645Z,2.6
2019-02-09T21:01:34.577Z,2.6
2019-02-09T21:01:42.470Z,2.5
2019-02-09T21:01:50.531Z,2.6
2019-02-09T21:01:58.448Z,2.5
2019-02-09T21:02:06.366Z,2.5
2019-02-09T21:02:14.280Z,2.6
2019-02-09T21:02:22.170Z,2.6
2019-02-09T21:02:30.090Z,2.9
2019-02-09T21:02:37.996Z,3
2019-02-09T21:02:45.927Z,2.8
2019-02-09T21:02:53.906Z,3
2019-02-09T21:03:01.980Z,2.7
2019-02-09T21:03:09.926Z,2.7
2019-02-09T21:03:17.846Z,2.6
2019-02-09T21:03:25.811Z,2.5
2019-02-09T21:03:33.730Z,2.4
2019-02-09T21:03:41.685Z,2.4
2019-02-09T21:03:49.604Z,2.4
2019-02-09T21:03:57.546Z,2.5
2019-02-09T21:04:05.477Z,2.6
2019-02-09T21:04:13.399Z,2.6
2019-02-09T21:04:21.304Z,2.6
2019-02-09T21:04:29.212Z,2.5
2019-02-09T21:04:37.117Z,2.5
2019-02-09T21:04:45.106Z,2.6
2019-02-09T21:04:53.019Z,2.4
2019-02-09T21:05:01.987Z,2.6
2019-02-09T21:05:09.927Z,2.6
2019-02-09T21:05:17.936Z,2.6
2019-02-09T21:05:25.848Z,2.5
2019-02-09T21:05:37.749Z,2.5
2019-02-09T21:05:46.607Z,2.5
2019-02-09T21:05:54.588Z,2.4
2019-02-09T21:06:02.505Z,2.5
2019-02-09T21:06:10.429Z,2.5
2019-02-09T21:06:18.383Z,2.6
2019-02-09T21:06:28.262Z,2.4
2019-02-09T21:06:36.184Z,2.5
2019-02-09T21:06:44.228Z,2.5
2019-02-09T21:06:52.122Z,2.5
2019-02-09T21:07:00.044Z,2.7
2019-02-09T21:07:08.999Z,2.7
2019-02-09T21:07:24.012Z,2.5
2019-02-09T21:07:28.785Z,2.5
2019-02-09T21:07:36.737Z,2.5
2019-02-09T21:07:45.672Z,2.4
2019-02-09T21:07:53.627Z,2.6
2019-02-09T21:08:01.784Z,2.6
2019-02-09T21:08:09.706Z,2.7
2019-02-09T21:08:17.572Z,2.6
2019-02-09T21:08:25.494Z,2.6
2019-02-09T21:08:34.393Z,2.6
2019-02-09T21:08:43.302Z,2.6
2019-02-09T21:08:51.212Z,2.5
2019-02-09T21:09:00.562Z,2.5
2019-02-09T21:09:09.156Z,2.5
2019-02-09T21:09:17.520Z,2.6
2019-02-09T21:09:25.435Z,2.8
2019-02-09T21:09:33.291Z,2.6
2019-02-09T21:09:42.193Z,2.6
2019-02-09T21:09:50.092Z,2.5
2019-02-09T21:09:59.070Z,2.4
2019-02-09T21:10:06.956Z,2.4
2019-02-09T21:10:14.955Z,2.6
2019-02-09T21:10:24.578Z,2.7
2019-02-09T21:10:33.583Z,2.7
2019-02-09T21:10:42.565Z,2.8
2019-02-09T21:10:51.453Z,2.6
2019-02-09T21:11:00.426Z,2.6
2019-02-09T21:11:08.548Z,2.5
2019-02-09T21:11:16.730Z,2.6
2019-02-09T21:11:24.630Z,2.7
2019-02-09T21:11:33.213Z,2.7
2019-02-09T21:11:41.600Z,2.6
2019-02-09T21:11:49.679Z,2.5
2019-02-09T21:11:57.677Z,2.4
2019-02-09T21:12:05.601Z,2.4
2019-02-09T21:12:16.246Z,2.5
2019-02-09T21:12:24.578Z,2.3
2019-02-09T21:12:32.746Z,2.2
2019-02-09T21:12:41.266Z,2.2
2019-02-09T21:12:49.581Z,2.3
2019-02-09T21:12:58.497Z,2.6
2019-02-09T21:13:06.404Z,2.7
2019-02-09T21:13:14.318Z,2.6
2019-02-09T21:13:22.279Z,2.6
2019-02-09T21:13:30.172Z,2.5
2019-02-09T21:13:38.070Z,2.4
2019-02-09T21:13:46.006Z,2.5
2019-02-09T21:13:53.940Z,2.6
2019-02-09T21:14:01.836Z,2.6